Medina, Texas
Current Conditions -  °F | °C
As of 6:15 PM on Tuesday 25 Nov 2014 (Local Time) from KERV Reporting Station
Clear Clear  
Wind Chill: 54°   Ceiling: Unl
Heat Index: 54°   Visibility: 10mi
Dew Point: 23°   Wind: 0mph
Humidity: 30%   Direction: NA
Pressure: 30.22"   Gusts: NA
Location:  29.8°N, 99.25°W
Report Text: KERV 260015Z AUTO 00000KT 10SM CLR 12/M05 A3022 RMK AO2 T01201050
Loading
Personal Weather Stations






























Interactive Weather Map New forecast layout! Learn more

10-Day Weather Forecast

Advertisements
Track Severe Weather on mobile